createdAt,value
2019-03-22T00:02:25.244Z,6.20
2019-03-22T00:04:51.493Z,6.30
2019-03-22T00:07:17.728Z,6.10
2019-03-22T00:09:43.964Z,6.20
2019-03-22T00:12:10.549Z,6.00
2019-03-22T00:14:37.221Z,6.00
2019-03-22T00:17:03.632Z,6.10
2019-03-22T00:19:29.892Z,6.10
2019-03-22T00:21:56.333Z,6.20
2019-03-22T00:24:22.680Z,6.10
2019-03-22T00:26:48.929Z,6.00
2019-03-22T00:29:15.356Z,6.10
2019-03-22T00:31:41.605Z,6.10
2019-03-22T00:34:07.885Z,6.10
2019-03-22T00:36:34.241Z,6.20
2019-03-22T00:39:00.472Z,5.90
2019-03-22T00:41:26.625Z,6.10
2019-03-22T00:43:52.865Z,5.90
2019-03-22T00:46:19.309Z,5.80
2019-03-22T00:48:45.653Z,5.80
2019-03-22T00:51:12.008Z,6.10
2019-03-22T00:53:38.572Z,6.10
2019-03-22T00:56:05.220Z,6.00
2019-03-22T00:58:31.705Z,5.70
2019-03-22T01:00:58.037Z,5.80
2019-03-22T01:03:24.485Z,5.90
2019-03-22T01:05:50.724Z,5.80
2019-03-22T01:08:17.344Z,5.80
2019-03-22T01:10:43.959Z,5.50
2019-03-22T01:13:10.285Z,5.60
2019-03-22T01:15:36.716Z,5.60
2019-03-22T01:18:03.197Z,5.60
2019-03-22T01:20:29.688Z,5.50
2019-03-22T01:22:55.954Z,5.30
2019-03-22T01:25:22.179Z,5.30
2019-03-22T01:27:48.517Z,5.40
2019-03-22T01:30:16.927Z,5.50
2019-03-22T01:32:43.332Z,5.10
2019-03-22T01:35:09.868Z,5.30
2019-03-22T01:37:36.304Z,5.40
2019-03-22T01:40:05.259Z,5.20
2019-03-22T01:42:31.772Z,5.20
2019-03-22T01:44:58.062Z,5.30
2019-03-22T01:47:24.457Z,5.20
2019-03-22T01:49:50.998Z,5.20
2019-03-22T01:52:17.534Z,5.20
2019-03-22T01:54:43.868Z,4.90
2019-03-22T01:57:10.210Z,5.20
2019-03-22T01:59:36.545Z,5.10
2019-03-22T02:02:02.984Z,5.40
2019-03-22T02:04:29.427Z,5.30
2019-03-22T02:06:55.961Z,5.30
2019-03-22T02:09:22.601Z,5.00
2019-03-22T02:11:48.936Z,5.00
2019-03-22T02:14:15.184Z,5.10
2019-03-22T02:16:41.536Z,5.30
2019-03-22T02:19:08.184Z,4.90
2019-03-22T02:21:34.631Z,4.90
2019-03-22T02:24:00.977Z,4.90
2019-03-22T02:26:27.454Z,4.80
2019-03-22T02:28:53.896Z,4.80
2019-03-22T02:31:20.133Z,4.70
2019-03-22T02:33:46.387Z,4.70
2019-03-22T02:36:12.724Z,4.60
2019-03-22T02:38:39.066Z,4.80
2019-03-22T02:41:05.518Z,4.60
2019-03-22T02:43:31.754Z,4.50
2019-03-22T02:45:58.043Z,4.40
2019-03-22T02:48:24.272Z,4.40
2019-03-22T02:50:50.530Z,4.40
2019-03-22T02:53:16.978Z,4.40
2019-03-22T02:55:43.264Z,4.20
2019-03-22T02:58:20.524Z,4.20
2019-03-22T03:00:38.874Z,4.20
2019-03-22T03:03:05.325Z,4.10
2019-03-22T03:05:31.652Z,4.00
2019-03-22T03:07:58.008Z,3.90
2019-03-22T03:10:24.569Z,3.90
2019-03-22T03:12:50.898Z,3.90
2019-03-22T03:15:18.444Z,3.80
2019-03-22T03:17:44.763Z,3.70
2019-03-22T03:20:16.755Z,3.80
2019-03-22T03:22:43.187Z,3.70
2019-03-22T03:25:10.587Z,3.60
2019-03-22T03:27:37.034Z,3.60
2019-03-22T03:30:18.165Z,3.50
2019-03-22T03:32:44.619Z,3.50
2019-03-22T03:35:11.299Z,3.50
2019-03-22T03:37:37.761Z,3.40
2019-03-22T03:40:06.804Z,3.40
2019-03-22T03:42:33.364Z,3.40
2019-03-22T03:44:59.869Z,3.30
2019-03-22T03:47:26.104Z,3.20
2019-03-22T03:49:52.554Z,3.20
2019-03-22T03:52:18.912Z,3.00
2019-03-22T03:54:45.256Z,3.00
2019-03-22T03:57:11.665Z,3.00
2019-03-22T03:59:37.998Z,2.90
2019-03-22T04:02:04.444Z,3.00
2019-03-22T04:04:30.689Z,2.90
2019-03-22T04:06:56.933Z,2.90
2019-03-22T04:09:23.173Z,3.00
2019-03-22T04:11:49.622Z,3.00
2019-03-22T04:14:15.957Z,3.10
2019-03-22T04:16:42.285Z,3.10
2019-03-22T04:19:08.731Z,3.00
2019-03-22T04:21:34.974Z,2.90
2019-03-22T04:24:01.217Z,3.10
2019-03-22T04:26:27.450Z,2.90
2019-03-22T04:29:06.877Z,2.80
2019-03-22T04:31:22.050Z,2.70
2019-03-22T04:33:48.289Z,2.70
2019-03-22T04:36:14.638Z,2.30
2019-03-22T04:38:40.878Z,2.60
2019-03-22T04:41:07.217Z,2.30
2019-03-22T04:43:33.653Z,2.10
2019-03-22T04:46:00.412Z,2.30
2019-03-22T04:48:29.696Z,2.10
2019-03-22T04:50:58.896Z,2.20
2019-03-22T04:53:28.421Z,2.00
2019-03-22T04:55:58.089Z,2.20
2019-03-22T04:58:26.329Z,2.30
2019-03-22T05:00:55.372Z,2.10
2019-03-22T05:03:23.917Z,2.20
2019-03-22T05:05:50.553Z,2.10
2019-03-22T05:08:18.805Z,1.90
2019-03-22T05:10:45.445Z,1.80
2019-03-22T05:13:15.297Z,1.90
2019-03-22T05:15:42.333Z,1.80
2019-03-22T05:18:09.080Z,2.00
2019-03-22T05:20:37.233Z,2.30
2019-03-22T05:23:04.372Z,2.20
2019-03-22T05:25:32.709Z,2.40
2019-03-22T05:28:00.959Z,2.70
2019-03-22T05:30:54.926Z,2.60
2019-03-22T05:33:21.197Z,2.80
2019-03-22T05:35:47.551Z,2.90
2019-03-22T05:38:13.792Z,3.00
2019-03-22T05:40:40.295Z,3.40
2019-03-22T05:43:06.568Z,4.20
2019-03-22T05:45:32.825Z,6.00
2019-03-22T05:47:59.057Z,7.30
2019-03-22T05:50:25.339Z,8.80
2019-03-22T05:52:52.753Z,9.90
2019-03-22T05:55:19.253Z,10.10
2019-03-22T05:57:45.685Z,10.50
2019-03-22T06:00:14.125Z,11.40
2019-03-22T06:02:42.292Z,11.30
2019-03-22T06:05:08.728Z,12.10
2019-03-22T06:07:36.949Z,11.50
2019-03-22T06:10:04.761Z,10.90
2019-03-22T06:12:31.131Z,11.10
2019-03-22T06:14:57.584Z,11.40
2019-03-22T06:17:23.833Z,11.00
2019-03-22T06:19:50.176Z,11.10
2019-03-22T06:22:16.612Z,11.60
2019-03-22T06:24:42.852Z,11.50
2019-03-22T06:27:09.192Z,11.20
2019-03-22T06:29:35.757Z,11.50
2019-03-22T06:32:02.196Z,11.90
2019-03-22T06:34:28.545Z,11.50
2019-03-22T06:36:54.901Z,11.50
2019-03-22T06:39:21.165Z,10.90
2019-03-22T06:41:47.514Z,10.90
2019-03-22T06:44:13.859Z,11.00
2019-03-22T06:46:40.350Z,11.10
2019-03-22T06:49:06.676Z,11.10
2019-03-22T06:51:32.927Z,11.20
2019-03-22T06:53:59.265Z,11.60
2019-03-22T06:56:25.710Z,11.60
2019-03-22T06:58:51.873Z,12.10
2019-03-22T07:01:18.217Z,13.00
2019-03-22T07:03:44.476Z,13.10
2019-03-22T07:06:10.821Z,13.00
2019-03-22T07:08:37.356Z,12.40
2019-03-22T07:11:03.697Z,11.40
2019-03-22T07:13:30.032Z,10.20
2019-03-22T07:15:56.584Z,9.40
2019-03-22T07:18:22.904Z,9.00
2019-03-22T07:20:49.241Z,8.40
2019-03-22T07:23:17.841Z,8.10
2019-03-22T07:25:44.079Z,7.90
2019-03-22T07:28:10.427Z,7.60
2019-03-22T07:30:36.877Z,7.60
2019-03-22T07:33:03.337Z,7.40
2019-03-22T07:35:29.592Z,7.30
2019-03-22T07:37:55.959Z,7.10
2019-03-22T07:40:22.395Z,6.90
2019-03-22T07:42:48.641Z,6.90
2019-03-22T07:45:15.085Z,7.00
2019-03-22T07:47:41.428Z,6.80
2019-03-22T07:50:09.972Z,6.80
2019-03-22T07:52:36.316Z,6.80
2019-03-22T07:55:04.158Z,7.00
2019-03-22T07:57:30.408Z,6.80
2019-03-22T07:59:56.655Z,6.60
2019-03-22T08:02:25.498Z,6.90
2019-03-22T08:04:51.029Z,6.80
2019-03-22T08:07:17.486Z,6.90
2019-03-22T08:09:43.740Z,6.80
2019-03-22T08:12:10.185Z,6.90
2019-03-22T08:14:36.415Z,6.70
2019-03-22T08:17:02.876Z,6.80
2019-03-22T08:19:29.292Z,6.50
2019-03-22T08:21:55.736Z,6.60
2019-03-22T08:24:22.186Z,6.70
2019-03-22T08:26:48.727Z,6.70
2019-03-22T08:29:15.060Z,6.80
2019-03-22T08:31:41.397Z,6.60
2019-03-22T08:34:07.743Z,6.80
2019-03-22T08:36:34.189Z,6.90
2019-03-22T08:39:00.575Z,6.80
2019-03-22T08:41:26.924Z,7.00
2019-03-22T08:43:53.118Z,6.90
2019-03-22T08:46:19.468Z,6.60
2019-03-22T08:48:45.933Z,6.80
2019-03-22T08:51:12.228Z,7.00
2019-03-22T08:53:38.574Z,6.90
2019-03-22T08:56:05.037Z,7.10
2019-03-22T08:58:31.373Z,6.80
2019-03-22T09:00:58.210Z,6.80
2019-03-22T09:03:24.621Z,6.80
2019-03-22T09:05:51.211Z,6.80
2019-03-22T09:08:17.560Z,6.80
2019-03-22T09:10:43.989Z,6.90
2019-03-22T09:13:10.221Z,7.10
2019-03-22T09:15:41.254Z,7.00
2019-03-22T09:18:04.614Z,7.00
2019-03-22T09:20:31.058Z,7.10
2019-03-22T09:22:57.325Z,7.00
2019-03-22T09:25:23.640Z,7.00
2019-03-22T09:27:50.015Z,7.20
2019-03-22T09:30:16.465Z,7.00
2019-03-22T09:32:42.893Z,7.00
2019-03-22T09:35:09.198Z,6.80
2019-03-22T09:37:35.941Z,7.20
2019-03-22T09:40:08.088Z,7.10
2019-03-22T09:42:33.130Z,7.50
2019-03-22T09:44:59.463Z,7.30
2019-03-22T09:47:25.875Z,7.50
2019-03-22T09:49:52.074Z,7.40
2019-03-22T09:52:18.528Z,7.60
2019-03-22T09:54:44.862Z,7.40
2019-03-22T09:57:11.392Z,7.60
2019-03-22T09:59:37.613Z,7.50
2019-03-22T10:02:04.185Z,7.50
2019-03-22T10:04:30.395Z,7.50
2019-03-22T10:06:56.855Z,7.60
2019-03-22T10:09:23.294Z,7.50
2019-03-22T10:11:49.642Z,7.60
2019-03-22T10:14:15.884Z,7.70
2019-03-22T10:16:42.137Z,7.90
2019-03-22T10:19:08.767Z,8.00
2019-03-22T10:21:35.003Z,8.20
2019-03-22T10:24:01.450Z,8.40
2019-03-22T10:26:27.908Z,8.70
2019-03-22T10:28:54.172Z,9.10
2019-03-22T10:31:20.471Z,9.40
2019-03-22T10:33:46.708Z,9.80
2019-03-22T10:36:13.236Z,10.10
2019-03-22T10:38:39.639Z,10.50
2019-03-22T10:41:06.001Z,10.80
2019-03-22T10:43:33.089Z,11.10
2019-03-22T10:45:59.476Z,11.40
2019-03-22T10:48:25.826Z,11.50
2019-03-22T10:50:52.221Z,11.70
2019-03-22T10:53:18.736Z,11.80
2019-03-22T10:55:45.073Z,12.00
2019-03-22T10:58:20.939Z,12.70
2019-03-22T11:00:39.543Z,13.70
2019-03-22T11:03:06.055Z,14.30
2019-03-22T11:05:32.422Z,14.30
2019-03-22T11:07:58.661Z,13.90
2019-03-22T11:10:25.096Z,13.70
2019-03-22T11:12:51.455Z,13.40
2019-03-22T11:15:17.943Z,13.40
2019-03-22T11:17:44.200Z,13.40
2019-03-22T11:20:13.675Z,13.40
2019-03-22T11:22:40.133Z,13.20
2019-03-22T11:25:07.083Z,13.30
2019-03-22T11:27:33.471Z,13.40
2019-03-22T11:29:59.923Z,13.50
2019-03-22T11:32:26.379Z,13.60
2019-03-22T11:34:52.754Z,13.70
2019-03-22T11:37:19.103Z,13.80
2019-03-22T11:39:45.550Z,13.80
2019-03-22T11:42:12.024Z,13.60
2019-03-22T11:44:38.448Z,13.60
2019-03-22T11:47:07.336Z,13.60
2019-03-22T11:49:33.705Z,13.60
2019-03-22T11:52:00.166Z,13.60
2019-03-22T11:54:26.464Z,13.60
2019-03-22T11:56:52.807Z,13.40
2019-03-22T11:59:19.169Z,13.30
2019-03-22T12:01:45.405Z,13.50
2019-03-22T12:04:11.973Z,13.50
2019-03-22T12:06:38.499Z,13.50
2019-03-22T12:09:07.744Z,13.40
2019-03-22T12:11:34.121Z,13.30
2019-03-22T12:14:00.573Z,13.60
2019-03-22T12:16:27.015Z,14.10
2019-03-22T12:18:53.256Z,14.40
2019-03-22T12:21:19.823Z,14.60
2019-03-22T12:23:46.032Z,14.70
2019-03-22T12:26:12.485Z,14.70
2019-03-22T12:28:38.864Z,14.80
2019-03-22T12:31:05.213Z,14.90
2019-03-22T12:33:31.476Z,14.90
2019-03-22T12:35:57.615Z,14.90
2019-03-22T12:38:23.953Z,14.90
2019-03-22T12:40:50.315Z,15.10
2019-03-22T12:43:16.575Z,15.20
2019-03-22T12:45:43.011Z,15.20
2019-03-22T12:48:09.371Z,15.20
2019-03-22T12:50:35.822Z,15.20
2019-03-22T12:53:02.384Z,14.80
2019-03-22T12:55:29.731Z,14.10
2019-03-22T12:57:56.079Z,13.70
2019-03-22T13:00:25.783Z,13.50
2019-03-22T13:02:52.445Z,13.30
2019-03-22T13:05:19.607Z,13.10
2019-03-22T13:07:46.263Z,13.10
2019-03-22T13:10:16.327Z,13.00
2019-03-22T13:12:42.675Z,13.00
2019-03-22T13:15:09.123Z,13.00
2019-03-22T13:17:35.731Z,12.70
2019-03-22T13:20:06.823Z,12.60
2019-03-22T13:22:33.263Z,12.60
2019-03-22T13:24:59.721Z,12.60
2019-03-22T13:27:26.179Z,12.50
2019-03-22T13:29:52.682Z,12.40
2019-03-22T13:32:19.041Z,12.30
2019-03-22T13:34:45.384Z,12.30
2019-03-22T13:37:12.029Z,12.20
2019-03-22T13:39:38.310Z,12.20
2019-03-22T13:42:04.776Z,12.30
2019-03-22T13:44:31.119Z,12.40
2019-03-22T13:46:57.483Z,12.40
2019-03-22T13:49:23.823Z,12.40
2019-03-22T13:51:50.179Z,12.50
2019-03-22T13:54:16.549Z,12.50
2019-03-22T13:56:42.947Z,12.30
2019-03-22T13:59:09.214Z,12.20
2019-03-22T14:01:35.598Z,12.20
2019-03-22T14:04:01.959Z,12.10
2019-03-22T14:06:28.441Z,12.00
2019-03-22T14:08:54.921Z,12.00
2019-03-22T14:11:21.170Z,12.00
2019-03-22T14:13:47.525Z,12.00
2019-03-22T14:16:13.980Z,11.90
2019-03-22T14:18:40.332Z,11.80
2019-03-22T14:21:06.699Z,11.80
2019-03-22T14:23:33.492Z,11.80
2019-03-22T14:25:59.941Z,11.80
2019-03-22T14:28:26.191Z,11.60
2019-03-22T14:30:52.552Z,11.60
2019-03-22T14:33:18.824Z,11.50
2019-03-22T14:35:45.171Z,11.50
2019-03-22T14:38:11.531Z,11.50
2019-03-22T14:40:37.787Z,11.50
2019-03-22T14:43:04.461Z,11.50
2019-03-22T14:45:30.951Z,11.40
2019-03-22T14:47:57.216Z,11.30
2019-03-22T14:50:23.563Z,11.20
2019-03-22T14:52:50.015Z,11.10
2019-03-22T14:55:16.484Z,11.00
2019-03-22T14:57:49.062Z,10.80
2019-03-22T15:00:12.762Z,10.80
2019-03-22T15:02:39.220Z,10.70
2019-03-22T15:05:06.575Z,10.60
2019-03-22T15:07:33.063Z,10.50
2019-03-22T15:09:59.410Z,10.40
2019-03-22T15:12:25.867Z,10.20
2019-03-22T15:15:10.383Z,9.90
2019-03-22T15:17:41.253Z,9.80
2019-03-22T15:20:27.527Z,9.70
2019-03-22T15:22:55.880Z,9.70
2019-03-22T15:25:40.471Z,9.50
2019-03-22T15:28:25.003Z,9.40
2019-03-22T15:30:59.024Z,9.30
2019-03-22T15:33:43.655Z,9.10
2019-03-22T15:36:17.818Z,9.00
2019-03-22T15:38:49.103Z,9.00
2019-03-22T15:41:15.352Z,9.00
2019-03-22T15:43:41.758Z,8.90
2019-03-22T15:46:08.094Z,8.80
2019-03-22T15:48:34.542Z,8.70
2019-03-22T15:51:00.792Z,8.60
2019-03-22T15:53:27.025Z,8.60
2019-03-22T15:55:53.481Z,8.50
2019-03-22T15:58:20.584Z,8.40
2019-03-22T16:00:47.029Z,8.30
2019-03-22T16:03:13.505Z,8.30
2019-03-22T16:05:39.984Z,8.40
2019-03-22T16:08:06.433Z,8.30
2019-03-22T16:10:32.796Z,8.10
2019-03-22T16:12:59.117Z,8.20
2019-03-22T16:15:25.712Z,8.20
2019-03-22T16:17:52.149Z,8.20
2019-03-22T16:20:18.518Z,8.10
2019-03-22T16:22:44.866Z,8.10
2019-03-22T16:25:11.696Z,8.20
2019-03-22T16:27:38.372Z,8.20
2019-03-22T16:30:10.798Z,8.00
2019-03-22T16:32:37.148Z,7.90
2019-03-22T16:35:05.709Z,7.90
2019-03-22T16:37:32.149Z,7.80
2019-03-22T16:39:58.516Z,7.90
2019-03-22T16:42:24.859Z,7.70
2019-03-22T16:44:51.200Z,7.70
2019-03-22T16:47:17.453Z,7.70
2019-03-22T16:49:43.828Z,7.80
2019-03-22T16:52:10.101Z,7.60
2019-03-22T16:54:36.583Z,7.50
2019-03-22T16:57:03.142Z,7.40
2019-03-22T16:59:31.634Z,7.40
2019-03-22T17:01:58.025Z,7.40
2019-03-22T17:04:24.530Z,7.30
2019-03-22T17:06:50.977Z,7.20
2019-03-22T17:09:17.270Z,7.20
2019-03-22T17:11:43.632Z,7.20
2019-03-22T17:14:10.072Z,7.20
2019-03-22T17:16:36.413Z,7.10
2019-03-22T17:19:04.676Z,7.20
2019-03-22T17:21:31.034Z,7.00
2019-03-22T17:23:57.360Z,7.10
2019-03-22T17:26:23.710Z,7.00
2019-03-22T17:28:49.962Z,6.90
2019-03-22T17:31:16.442Z,7.00
2019-03-22T17:33:42.732Z,7.00
2019-03-22T17:36:09.176Z,7.00
2019-03-22T17:38:35.419Z,7.00
2019-03-22T17:41:01.663Z,6.90
2019-03-22T17:43:28.008Z,6.90
2019-03-22T17:45:54.232Z,6.90
2019-03-22T17:48:20.389Z,6.90
2019-03-22T17:50:46.824Z,7.10
2019-03-22T17:53:13.118Z,6.80
2019-03-22T17:55:39.406Z,6.80
2019-03-22T17:58:05.636Z,6.80
2019-03-22T18:00:32.588Z,6.50
2019-03-22T18:02:59.040Z,6.50
2019-03-22T18:05:25.294Z,6.60
2019-03-22T18:07:51.644Z,6.40
2019-03-22T18:10:17.998Z,6.40
2019-03-22T18:12:44.332Z,6.40
2019-03-22T18:15:11.886Z,6.40
2019-03-22T18:17:38.249Z,6.30
2019-03-22T18:20:08.361Z,6.30
2019-03-22T18:22:34.690Z,6.30
2019-03-22T18:25:00.946Z,6.20
2019-03-22T18:27:27.296Z,6.30
2019-03-22T18:29:53.828Z,6.30
2019-03-22T18:32:20.181Z,6.40
2019-03-22T18:34:46.510Z,6.30
2019-03-22T18:37:12.748Z,6.30
2019-03-22T18:39:39.140Z,6.10
2019-03-22T18:42:05.477Z,6.10
2019-03-22T18:44:31.912Z,6.00
2019-03-22T18:46:58.269Z,5.90
2019-03-22T18:49:24.610Z,6.10
2019-03-22T18:51:50.953Z,5.90
2019-03-22T18:54:17.207Z,5.90
2019-03-22T18:56:43.449Z,5.80
2019-03-22T18:59:09.798Z,5.80
2019-03-22T19:01:36.317Z,5.80
2019-03-22T19:04:02.766Z,5.70
2019-03-22T19:06:29.123Z,5.70
2019-03-22T19:08:55.364Z,5.60
2019-03-22T19:11:21.612Z,5.60
2019-03-22T19:13:47.954Z,5.60
2019-03-22T19:16:14.197Z,5.80
2019-03-22T19:18:40.540Z,5.60
2019-03-22T19:21:06.876Z,5.60
2019-03-22T19:23:33.375Z,5.60
2019-03-22T19:25:59.818Z,5.60
2019-03-22T19:28:26.260Z,5.70
2019-03-22T19:30:52.608Z,5.70
2019-03-22T19:33:18.848Z,5.80
2019-03-22T19:35:45.299Z,5.80
2019-03-22T19:38:11.607Z,5.70
2019-03-22T19:40:37.945Z,5.80
2019-03-22T19:43:04.386Z,5.80
2019-03-22T19:45:30.764Z,5.90
2019-03-22T19:47:57.017Z,5.80
2019-03-22T19:50:23.349Z,6.00
2019-03-22T19:52:49.592Z,5.90
2019-03-22T19:55:15.946Z,6.00
2019-03-22T19:57:42.213Z,6.00
2019-03-22T20:00:16.341Z,6.10
2019-03-22T20:02:42.740Z,6.10
2019-03-22T20:05:09.376Z,6.20
2019-03-22T20:07:35.757Z,6.20
2019-03-22T20:10:05.300Z,6.40
2019-03-22T20:12:31.549Z,6.30
2019-03-22T20:14:57.803Z,6.20
2019-03-22T20:17:24.147Z,5.80
2019-03-22T20:19:50.693Z,6.20
2019-03-22T20:22:17.036Z,6.30
2019-03-22T20:24:43.370Z,6.10
2019-03-22T20:27:09.705Z,6.30
2019-03-22T20:29:36.072Z,6.30
2019-03-22T20:32:02.624Z,6.20
2019-03-22T20:34:28.992Z,6.40
2019-03-22T20:36:55.516Z,6.30
2019-03-22T20:39:21.749Z,6.20
2019-03-22T20:41:47.984Z,6.20
2019-03-22T20:44:14.348Z,6.20
2019-03-22T20:46:40.581Z,6.30
2019-03-22T20:49:07.013Z,6.20
2019-03-22T20:51:33.585Z,6.30
2019-03-22T20:54:00.035Z,6.10
2019-03-22T20:56:26.278Z,6.20
2019-03-22T20:58:52.522Z,6.00
2019-03-22T21:01:18.861Z,6.00
2019-03-22T21:03:45.776Z,6.00
2019-03-22T21:06:12.136Z,6.00
2019-03-22T21:08:38.529Z,6.30
2019-03-22T21:11:04.763Z,6.30
2019-03-22T21:13:31.229Z,6.10
2019-03-22T21:15:57.468Z,6.20
2019-03-22T21:18:23.804Z,6.00
2019-03-22T21:20:50.254Z,6.10
2019-03-22T21:23:16.609Z,6.00
2019-03-22T21:25:43.736Z,6.10
2019-03-22T21:28:10.085Z,6.10
2019-03-22T21:30:36.521Z,6.00
2019-03-22T21:33:03.092Z,6.10
2019-03-22T21:35:37.191Z,6.00
2019-03-22T21:38:10.137Z,6.10
2019-03-22T21:40:28.590Z,6.10
2019-03-22T21:42:54.996Z,6.30
2019-03-22T21:45:21.394Z,6.00
2019-03-22T21:47:47.590Z,6.10
2019-03-22T21:50:13.940Z,5.90
2019-03-22T21:52:40.434Z,6.00
2019-03-22T21:55:07.268Z,6.00
2019-03-22T21:57:33.664Z,5.90
2019-03-22T22:00:00.002Z,6.00
2019-03-22T22:02:26.266Z,5.90
2019-03-22T22:04:52.660Z,5.90
2019-03-22T22:07:18.899Z,5.60
2019-03-22T22:09:45.261Z,6.00
2019-03-22T22:12:11.581Z,5.80
2019-03-22T22:14:41.027Z,6.00
2019-03-22T22:17:06.061Z,5.90
2019-03-22T22:19:32.437Z,5.80
2019-03-22T22:21:58.880Z,5.80
2019-03-22T22:24:25.120Z,5.90
2019-03-22T22:26:51.615Z,5.80
2019-03-22T22:29:17.800Z,5.30
2019-03-22T22:31:44.236Z,5.80
2019-03-22T22:34:10.787Z,5.70
2019-03-22T22:36:37.128Z,5.70
2019-03-22T22:39:04.569Z,5.70
2019-03-22T22:41:30.869Z,5.70
2019-03-22T22:43:57.183Z,5.70
2019-03-22T22:46:23.424Z,5.90
2019-03-22T22:48:49.769Z,5.70
2019-03-22T22:51:16.012Z,5.70
2019-03-22T22:53:42.354Z,5.60
2019-03-22T22:56:08.601Z,5.70
2019-03-22T22:58:34.944Z,5.90
2019-03-22T23:01:01.381Z,5.70
2019-03-22T23:03:27.564Z,6.00
2019-03-22T23:05:53.861Z,5.70
2019-03-22T23:08:20.202Z,5.60
2019-03-22T23:10:46.544Z,5.60
2019-03-22T23:13:13.060Z,5.80
2019-03-22T23:15:39.588Z,5.70
2019-03-22T23:18:05.931Z,5.60
2019-03-22T23:20:32.173Z,5.80
2019-03-22T23:22:58.417Z,5.80
2019-03-22T23:25:24.900Z,5.80
2019-03-22T23:27:51.379Z,5.60
2019-03-22T23:30:17.728Z,5.80
2019-03-22T23:32:44.081Z,5.60
2019-03-22T23:35:10.707Z,5.70
2019-03-22T23:37:37.161Z,5.70
2019-03-22T23:40:04.617Z,5.60
2019-03-22T23:42:30.856Z,5.60
2019-03-22T23:44:57.197Z,5.60
2019-03-22T23:47:23.576Z,5.60
2019-03-22T23:49:50.051Z,5.60
2019-03-22T23:52:16.693Z,5.70
2019-03-22T23:54:43.273Z,5.70
2019-03-22T23:57:09.701Z,5.70
2019-03-22T23:59:36.137Z,5.70
